Time;durP1;ratioP1;P1;durP2;ratioP2;P2;SDS_P1;SDS_P2;PMS_P1;PMS_P2;Temp;Humidity;BMP_temperature;BMP_pressure;BME280_temperature;BME280_humidity;BME280_pressure;Samples;Min_cycle;Max_cycle;Signal;HPM_P1;HPM_P2
2023/09/08 00:01:52;;;;;;;9.57;7.00;;;;;;;;;;5058695;28;20101;-57
2023/09/08 00:04:19;;;;;;;12.50;7.90;;;;;;;;;;5059078;28;20626;-56
2023/09/08 00:06:45;;;;;;;10.40;7.65;;;;;;;;;;5058938;28;20466;-56
2023/09/08 00:09:12;;;;;;;9.15;7.10;;;;;;;;;;5057400;28;20124;-56
2023/09/08 00:11:38;;;;;;;11.05;7.65;;;;;;;;;;5060467;28;20071;-56
2023/09/08 00:14:04;;;;;;;12.98;7.30;;;;;;;;;;5059975;28;20044;-56
2023/09/08 00:16:30;;;;;;;9.73;7.35;;;;;;;;;;5058150;28;20457;-56
2023/09/08 00:19:00;;;;;;;15.00;7.68;;;;;;;;;;5058190;28;20044;-57
2023/09/08 00:21:27;;;;;;;10.55;8.00;;;;;;;;;;5058189;28;20439;-57
2023/09/08 00:23:53;;;;;;;9.73;7.30;;;;;;;;;;5065590;28;20081;-57
2023/09/08 00:26:20;;;;;;;10.40;7.22;;;;;;;;;;5058645;28;20600;-57
2023/09/08 00:28:46;;;;;;;9.05;6.93;;;;;;;;;;5060408;28;20399;-57
2023/09/08 00:31:12;;;;;;;10.05;7.47;;;;;;;;;;5054580;28;20129;-57
2023/09/08 00:33:39;;;;;;;8.93;6.20;;;;;;;;;;5058381;28;20040;-56
2023/09/08 00:36:05;;;;;;;9.27;6.80;;;;;;;;;;5058655;28;20456;-57
2023/09/08 00:38:31;;;;;;;9.50;7.20;;;;;;;;;;5059282;28;20040;-56
2023/09/08 00:40:58;;;;;;;10.77;7.07;;;;;;;;;;5060168;28;20068;-56
2023/09/08 00:43:25;;;;;;;10.68;8.27;;;;;;;;;;5058566;28;20047;-57
2023/09/08 00:45:51;;;;;;;8.95;6.85;;;;;;;;;;5059765;28;20049;-57
2023/09/08 00:48:18;;;;;;;10.18;7.30;;;;;;;;;;5060410;28;20124;-56
2023/09/08 00:50:44;;;;;;;13.27;8.05;;;;;;;;;;5058303;28;20056;-56
2023/09/08 00:53:11;;;;;;;16.17;8.50;;;;;;;;;;5061090;28;20051;-57
2023/09/08 00:55:37;;;;;;;11.07;7.50;;;;;;;;;;5061039;28;20400;-56
2023/09/08 00:58:03;;;;;;;10.52;8.45;;;;;;;;;;5060486;28;20124;-57
2023/09/08 01:00:29;;;;;;;10.90;7.63;;;;;;;;;;5059635;28;20453;-56
2023/09/08 01:02:55;;;;;;;10.07;7.25;;;;;;;;;;5063585;28;20696;-57
2023/09/08 01:05:22;;;;;;;10.23;7.68;;;;;;;;;;5070672;28;20047;-56
2023/09/08 01:07:49;;;;;;;11.75;7.60;;;;;;;;;;5059684;28;20077;-57
2023/09/08 01:10:15;;;;;;;10.55;7.63;;;;;;;;;;5057946;28;20059;-57
2023/09/08 01:12:41;;;;;;;14.88;7.88;;;;;;;;;;5067979;28;20391;-57
2023/09/08 01:15:08;;;;;;;12.27;8.15;;;;;;;;;;5071473;28;20502;-56
2023/09/08 01:17:34;;;;;;;10.18;7.43;;;;;;;;;;5063501;28;20345;-56
2023/09/08 01:20:24;;;;;;;12.68;8.15;;;;;;;;;;5065907;28;20603;-57
2023/09/08 01:23:02;;;;;;;13.18;7.50;;;;;;;;;;5070784;28;20640;-56
2023/09/08 01:25:29;;;;;;;13.82;8.38;;;;;;;;;;5066717;28;20464;-57
2023/09/08 01:27:57;;;;;;;10.75;7.80;;;;;;;;;;5067540;28;20052;-57
2023/09/08 01:30:24;;;;;;;12.30;8.68;;;;;;;;;;5072700;28;20045;-56
2023/09/08 01:32:51;;;;;;;14.45;8.40;;;;;;;;;;5071214;28;20049;-56
2023/09/08 01:35:17;;;;;;;11.85;8.38;;;;;;;;;;5071313;28;20372;-56
2023/09/08 01:37:47;;;;;;;10.23;8.60;;;;;;;;;;5072744;28;20047;-57
2023/09/08 01:40:13;;;;;;;9.90;8.13;;;;;;;;;;5070499;28;20534;-56
2023/09/08 01:42:40;;;;;;;11.20;8.23;;;;;;;;;;5066688;28;20051;-56
2023/09/08 01:45:06;;;;;;;13.82;8.77;;;;;;;;;;5069671;28;20044;-55
2023/09/08 01:47:33;;;;;;;15.05;8.43;;;;;;;;;;5065812;28;20068;-57
2023/09/08 01:49:59;;;;;;;14.98;8.32;;;;;;;;;;5065082;28;20131;-56
2023/09/08 01:52:25;;;;;;;10.63;8.02;;;;;;;;;;5065839;28;20124;-56
2023/09/08 01:54:51;;;;;;;13.18;8.75;;;;;;;;;;5064765;28;20502;-56
2023/09/08 01:57:18;;;;;;;10.85;8.05;;;;;;;;;;5067919;28;20063;-57
2023/09/08 01:59:48;;;;;;;14.95;8.90;;;;;;;;;;5067577;28;20373;-57
2023/09/08 02:02:14;;;;;;;12.57;8.02;;;;;;;;;;5069647;28;20048;-57
2023/09/08 02:04:41;;;;;;;12.73;8.48;;;;;;;;;;5070463;28;20076;-56
2023/09/08 02:07:07;;;;;;;13.40;8.60;;;;;;;;;;5073042;28;20040;-56
2023/09/08 02:09:34;;;;;;;18.10;10.98;;;;;;;;;;5071235;28;20049;-56
2023/09/08 02:12:00;;;;;;;11.13;8.20;;;;;;;;;;5071719;28;20162;-56
2023/09/08 02:14:27;;;;;;;12.38;8.10;;;;;;;;;;5070380;28;20079;-56
2023/09/08 02:16:54;;;;;;;10.57;8.18;;;;;;;;;;5069576;28;20126;-56
2023/09/08 02:19:20;;;;;;;12.23;8.32;;;;;;;;;;5067616;28;20071;-56
2023/09/08 02:21:46;;;;;;;12.00;8.93;;;;;;;;;;5071707;28;20052;-56
2023/09/08 02:24:12;;;;;;;11.18;8.73;;;;;;;;;;5069230;28;20456;-56
2023/09/08 02:26:39;;;;;;;13.43;9.27;;;;;;;;;;5066452;28;20045;-56
2023/09/08 02:29:05;;;;;;;11.65;9.18;;;;;;;;;;5070449;28;20432;-56
2023/09/08 02:31:32;;;;;;;17.63;9.20;;;;;;;;;;5070917;28;20086;-57
2023/09/08 02:33:58;;;;;;;14.15;9.63;;;;;;;;;;5070408;28;20123;-57
2023/09/08 02:36:28;;;;;;;10.25;8.95;;;;;;;;;;5074009;28;20507;-56
2023/09/08 02:38:54;;;;;;;11.82;9.73;;;;;;;;;;5070497;28;20116;-57
2023/09/08 02:41:20;;;;;;;13.95;9.63;;;;;;;;;;5072214;28;20405;-56
2023/09/08 02:43:47;;;;;;;11.85;9.27;;;;;;;;;;5062109;28;20081;-57
2023/09/08 02:46:13;;;;;;;13.10;9.73;;;;;;;;;;5062273;28;20408;-56
2023/09/08 02:48:40;;;;;;;10.23;8.43;;;;;;;;;;5069230;28;20049;-56
2023/09/08 02:51:06;;;;;;;13.65;9.35;;;;;;;;;;5066771;28;20052;-56
2023/09/08 02:53:32;;;;;;;11.23;9.10;;;;;;;;;;5062876;28;20040;-56
2023/09/08 02:55:59;;;;;;;13.68;9.50;;;;;;;;;;5069832;28;20504;-57
2023/09/08 02:58:26;;;;;;;15.70;9.55;;;;;;;;;;5070271;28;20037;-57
2023/09/08 03:00:52;;;;;;;12.52;8.95;;;;;;;;;;5069102;28;20041;-57
2023/09/08 03:03:19;;;;;;;18.50;10.02;;;;;;;;;;5060890;28;20041;-56
2023/09/08 03:05:45;;;;;;;12.30;9.63;;;;;;;;;;5066384;28;20103;-57
2023/09/08 03:08:12;;;;;;;15.25;9.98;;;;;;;;;;5064946;28;20037;-57
2023/09/08 03:10:38;;;;;;;16.45;10.18;;;;;;;;;;5060963;28;20072;-56
2023/09/08 03:13:05;;;;;;;12.50;8.88;;;;;;;;;;5051601;28;20040;-57
2023/09/08 03:15:31;;;;;;;12.15;9.00;;;;;;;;;;5070979;28;20074;-56
2023/09/08 03:17:58;;;;;;;12.55;9.32;;;;;;;;;;5068715;28;20045;-56
2023/09/08 03:20:25;;;;;;;17.48;9.85;;;;;;;;;;5060686;28;20105;-56
2023/09/08 03:22:52;;;;;;;13.50;9.35;;;;;;;;;;5062020;28;20037;-56
2023/09/08 03:25:18;;;;;;;14.10;9.82;;;;;;;;;;5069245;28;20048;-56
2023/09/08 03:27:44;;;;;;;11.38;9.65;;;;;;;;;;5066764;28;20044;-56
2023/09/08 03:30:11;;;;;;;13.02;9.82;;;;;;;;;;5065060;28;20100;-56
2023/09/08 03:32:37;;;;;;;10.70;9.50;;;;;;;;;;5070167;28;20150;-56
2023/09/08 03:35:06;;;;;;;11.50;9.88;;;;;;;;;;5070480;28;20168;-57
2023/09/08 03:37:33;;;;;;;14.18;10.40;;;;;;;;;;5069944;28;20040;-56
2023/09/08 03:39:59;;;;;;;14.73;9.68;;;;;;;;;;5073571;28;20094;-56
2023/09/08 03:42:25;;;;;;;14.02;9.93;;;;;;;;;;5066890;28;20405;-56
2023/09/08 03:44:51;;;;;;;11.48;9.82;;;;;;;;;;5065527;28;20123;-56
2023/09/08 03:47:17;;;;;;;14.15;9.75;;;;;;;;;;5069741;28;20068;-57
2023/09/08 03:49:43;;;;;;;13.95;10.00;;;;;;;;;;5060796;28;20409;-56
2023/09/08 03:52:10;;;;;;;12.77;10.90;;;;;;;;;;5065778;28;20039;-56
2023/09/08 03:54:37;;;;;;;12.80;11.07;;;;;;;;;;5068667;28;20049;-56
2023/09/08 03:57:03;;;;;;;13.77;10.85;;;;;;;;;;5065268;28;20152;-56
2023/09/08 03:59:29;;;;;;;13.20;10.25;;;;;;;;;;5067783;28;20141;-56
2023/09/08 04:01:56;;;;;;;15.13;11.07;;;;;;;;;;5064966;28;20505;-57
2023/09/08 04:04:22;;;;;;;12.27;9.80;;;;;;;;;;5061040;28;20093;-56
2023/09/08 04:06:48;;;;;;;16.15;10.82;;;;;;;;;;5056074;28;20425;-56
2023/09/08 04:09:15;;;;;;;12.68;10.05;;;;;;;;;;5062037;28;20048;-56
2023/09/08 04:11:41;;;;;;;14.80;11.38;;;;;;;;;;5062107;28;20073;-56
2023/09/08 04:14:07;;;;;;;14.32;9.77;;;;;;;;;;5068568;28;20397;-56
2023/09/08 04:16:33;;;;;;;13.02;10.65;;;;;;;;;;5069473;28;20543;-56
2023/09/08 04:18:59;;;;;;;13.75;10.75;;;;;;;;;;5070696;28;20040;-56
2023/09/08 04:21:25;;;;;;;13.48;11.38;;;;;;;;;;5070240;28;20492;-57
2023/09/08 04:23:52;;;;;;;12.63;10.02;;;;;;;;;;5063941;28;20063;-56
2023/09/08 04:26:18;;;;;;;13.48;10.32;;;;;;;;;;5068923;28;20095;-56
2023/09/08 04:28:44;;;;;;;13.30;10.48;;;;;;;;;;5061052;28;20085;-56
2023/09/08 04:31:10;;;;;;;15.02;11.45;;;;;;;;;;5066241;28;20045;-56
2023/09/08 04:33:37;;;;;;;16.10;11.43;;;;;;;;;;5063074;28;20094;-56
2023/09/08 04:36:03;;;;;;;17.55;11.48;;;;;;;;;;5067684;28;20036;-56
2023/09/08 04:38:29;;;;;;;14.48;11.20;;;;;;;;;;5066890;28;20377;-56
2023/09/08 04:40:55;;;;;;;15.80;11.07;;;;;;;;;;5064163;28;20040;-57
2023/09/08 04:43:21;;;;;;;16.98;12.18;;;;;;;;;;5068219;28;20409;-57
2023/09/08 04:45:48;;;;;;;15.27;10.85;;;;;;;;;;5066545;28;20032;-56
2023/09/08 04:48:14;;;;;;;14.38;11.68;;;;;;;;;;5062685;28;20053;-55
2023/09/08 04:50:40;;;;;;;16.83;12.02;;;;;;;;;;5066705;28;20048;-56
2023/09/08 04:53:06;;;;;;;16.50;11.82;;;;;;;;;;5067250;28;20116;-56
2023/09/08 04:55:33;;;;;;;14.85;11.30;;;;;;;;;;5068985;28;20044;-55
2023/09/08 04:57:59;;;;;;;14.63;12.00;;;;;;;;;;5068681;28;20154;-56
2023/09/08 05:00:26;;;;;;;13.68;11.38;;;;;;;;;;5058847;28;20044;-56
2023/09/08 05:02:52;;;;;;;15.90;11.05;;;;;;;;;;5058657;28;20458;-57
2023/09/08 05:05:18;;;;;;;17.58;11.73;;;;;;;;;;5060862;28;20059;-56
2023/09/08 05:07:45;;;;;;;16.38;11.40;;;;;;;;;;5068394;28;20032;-56
2023/09/08 05:10:11;;;;;;;14.68;11.68;;;;;;;;;;5067039;28;20369;-55
2023/09/08 05:12:38;;;;;;;14.65;11.98;;;;;;;;;;5056022;28;20470;-56
2023/09/08 05:15:10;;;;;;;19.08;11.52;;;;;;;;;;5069624;28;20211;-56
2023/09/08 05:17:36;;;;;;;14.02;11.23;;;;;;;;;;5061648;28;20117;-56
2023/09/08 05:20:03;;;;;;;17.30;12.32;;;;;;;;;;5059854;28;20056;-55
2023/09/08 05:22:29;;;;;;;13.50;12.00;;;;;;;;;;5066976;28;20044;-55
2023/09/08 05:24:56;;;;;;;14.77;11.90;;;;;;;;;;5060085;28;20364;-56
2023/09/08 05:27:22;;;;;;;16.40;11.75;;;;;;;;;;5059282;28;20185;-56
2023/09/08 05:29:48;;;;;;;12.85;11.05;;;;;;;;;;5058277;28;20117;-56
2023/09/08 05:32:14;;;;;;;13.80;12.30;;;;;;;;;;5060034;28;20132;-56
2023/09/08 05:34:41;;;;;;;17.58;12.07;;;;;;;;;;5063644;28;20048;-55
2023/09/08 05:37:08;;;;;;;16.55;12.65;;;;;;;;;;5061936;28;20188;-55
2023/09/08 05:39:34;;;;;;;14.70;11.68;;;;;;;;;;5058009;28;21738;-55
2023/09/08 05:42:01;;;;;;;14.10;11.25;;;;;;;;;;5058547;28;20043;-56
2023/09/08 05:44:27;;;;;;;16.83;11.95;;;;;;;;;;5068798;28;20123;-55
2023/09/08 05:46:53;;;;;;;14.65;12.23;;;;;;;;;;5073230;28;20150;-56
2023/09/08 05:49:19;;;;;;;14.95;11.90;;;;;;;;;;5073615;28;20049;-56
2023/09/08 05:51:45;;;;;;;15.23;11.90;;;;;;;;;;5072892;28;20115;-56
2023/09/08 05:54:12;;;;;;;16.35;12.20;;;;;;;;;;5069235;28;20040;-56
2023/09/08 05:56:38;;;;;;;13.77;11.60;;;;;;;;;;5067821;28;20123;-56
2023/09/08 05:59:04;;;;;;;15.45;12.50;;;;;;;;;;5056736;28;20099;-56
2023/09/08 06:01:32;;;;;;;16.95;13.07;;;;;;;;;;5068168;28;20063;-56
2023/09/08 06:03:58;;;;;;;15.13;11.85;;;;;;;;;;5069477;28;20409;-56
2023/09/08 06:06:28;;;;;;;16.38;12.73;;;;;;;;;;5072721;28;20112;-56
2023/09/08 06:08:54;;;;;;;17.70;12.48;;;;;;;;;;5072037;28;20044;-56
2023/09/08 06:11:20;;;;;;;15.68;12.68;;;;;;;;;;5073419;28;20058;-56
2023/09/08 06:13:46;;;;;;;14.32;12.32;;;;;;;;;;5072452;28;20101;-55
2023/09/08 06:16:13;;;;;;;13.65;12.18;;;;;;;;;;5073231;28;20036;-56
2023/09/08 06:18:43;;;;;;;17.42;13.07;;;;;;;;;;5071915;28;20048;-56
2023/09/08 06:21:10;;;;;;;15.35;12.45;;;;;;;;;;5071915;28;20146;-56
2023/09/08 06:23:36;;;;;;;17.23;12.32;;;;;;;;;;5073272;28;20048;-56
2023/09/08 06:26:02;;;;;;;15.10;11.98;;;;;;;;;;5070553;28;20041;-56
2023/09/08 06:28:29;;;;;;;14.25;12.18;;;;;;;;;;5066248;28;20052;-56
2023/09/08 06:30:55;;;;;;;13.05;11.75;;;;;;;;;;5065784;28;20083;-56
2023/09/08 06:33:24;;;;;;;15.77;12.32;;;;;;;;;;5075328;28;20439;-56
2023/09/08 06:35:50;;;;;;;15.57;11.55;;;;;;;;;;5060968;28;20040;-56
2023/09/08 06:38:17;;;;;;;20.80;12.80;;;;;;;;;;5060173;28;20154;-56
2023/09/08 06:40:43;;;;;;;13.77;12.27;;;;;;;;;;5069307;28;20064;-56
2023/09/08 06:43:09;;;;;;;16.08;11.68;;;;;;;;;;5072528;28;20045;-56
2023/09/08 06:45:39;;;;;;;18.30;12.40;;;;;;;;;;5072726;28;20068;-56
2023/09/08 06:48:06;;;;;;;13.68;11.93;;;;;;;;;;5069602;28;20185;-56
2023/09/08 06:50:32;;;;;;;16.05;11.95;;;;;;;;;;5073624;28;20131;-56
2023/09/08 06:53:00;;;;;;;15.38;11.35;;;;;;;;;;5071763;28;20160;-56
2023/09/08 06:55:26;;;;;;;15.00;10.48;;;;;;;;;;5071867;28;20079;-56
2023/09/08 06:57:52;;;;;;;16.20;11.55;;;;;;;;;;5072400;28;20429;-56
2023/09/08 07:00:20;;;;;;;18.45;10.65;;;;;;;;;;5071466;28;20134;-56
2023/09/08 07:02:46;;;;;;;14.27;10.98;;;;;;;;;;5063242;28;20052;-56
2023/09/08 07:05:12;;;;;;;16.58;11.13;;;;;;;;;;5071195;28;20036;-55
2023/09/08 07:07:39;;;;;;;13.65;10.77;;;;;;;;;;5070688;28;20121;-55
2023/09/08 07:10:07;;;;;;;13.73;10.90;;;;;;;;;;5064693;28;20480;-56
2023/09/08 07:12:33;;;;;;;15.82;10.52;;;;;;;;;;5061675;28;20048;-55
2023/09/08 07:15:00;;;;;;;13.15;10.80;;;;;;;;;;5061861;28;20029;-56
2023/09/08 07:17:27;;;;;;;13.18;10.02;;;;;;;;;;5052117;28;20404;-56
2023/09/08 07:19:53;;;;;;;11.98;10.50;;;;;;;;;;5071106;28;20043;-56
2023/09/08 07:22:19;;;;;;;11.50;9.80;;;;;;;;;;5060695;28;20503;-55
2023/09/08 07:24:46;;;;;;;11.77;9.27;;;;;;;;;;5069153;28;20074;-56
2023/09/08 07:27:15;;;;;;;12.73;9.15;;;;;;;;;;5067938;28;20032;-56
2023/09/08 07:29:41;;;;;;;12.00;9.27;;;;;;;;;;5069892;28;20044;-56
2023/09/08 07:32:08;;;;;;;13.25;9.43;;;;;;;;;;5071530;28;20043;-56
2023/09/08 07:34:34;;;;;;;15.18;9.48;;;;;;;;;;5071787;28;20048;-56
2023/09/08 07:37:01;;;;;;;14.80;9.38;;;;;;;;;;5071131;28;20033;-56
2023/09/08 07:39:27;;;;;;;15.48;9.40;;;;;;;;;;5071492;28;20097;-56
2023/09/08 07:41:56;;;;;;;14.80;9.73;;;;;;;;;;5070672;28;20127;-56
2023/09/08 07:44:22;;;;;;;12.63;9.60;;;;;;;;;;5070088;28;20047;-56
2023/09/08 07:46:50;;;;;;;11.98;9.07;;;;;;;;;;5070759;28;20040;-56
2023/09/08 07:49:18;;;;;;;11.65;8.60;;;;;;;;;;5070602;28;20357;-56
2023/09/08 07:51:44;;;;;;;14.77;8.73;;;;;;;;;;5070077;28;20437;-56
2023/09/08 07:54:11;;;;;;;9.82;8.20;;;;;;;;;;5071140;28;20125;-56
2023/09/08 07:56:40;;;;;;;13.77;8.73;;;;;;;;;;5071321;28;20056;-56
2023/09/08 07:59:06;;;;;;;14.77;8.20;;;;;;;;;;5070371;28;20511;-56
2023/09/08 08:01:33;;;;;;;14.10;7.65;;;;;;;;;;5070719;28;21633;-56
2023/09/08 08:04:02;;;;;;;13.15;8.60;;;;;;;;;;5071254;28;20048;-56
2023/09/08 08:06:28;;;;;;;15.48;8.07;;;;;;;;;;5068792;28;20123;-56
2023/09/08 08:08:54;;;;;;;11.80;7.50;;;;;;;;;;5070730;28;20058;-56
2023/09/08 08:11:20;;;;;;;11.93;7.93;;;;;;;;;;5071204;28;20041;-56
2023/09/08 08:13:46;;;;;;;13.80;8.45;;;;;;;;;;5069614;28;20488;-56
2023/09/08 08:16:13;;;;;;;11.25;8.15;;;;;;;;;;5069610;28;20043;-56
2023/09/08 08:18:39;;;;;;;10.57;8.13;;;;;;;;;;5070198;28;20102;-56
2023/09/08 08:21:05;;;;;;;11.80;8.20;;;;;;;;;;5070992;28;20041;-56
2023/09/08 08:23:33;;;;;;;11.38;8.18;;;;;;;;;;5070408;28;20441;-56
2023/09/08 08:26:00;;;;;;;10.60;7.20;;;;;;;;;;5070469;28;20083;-56
2023/09/08 08:28:26;;;;;;;11.20;8.00;;;;;;;;;;5068538;28;20527;-56
2023/09/08 08:30:52;;;;;;;11.35;8.07;;;;;;;;;;5068759;28;20081;-56
2023/09/08 08:33:20;;;;;;;11.32;8.00;;;;;;;;;;5069910;28;20400;-56
2023/09/08 08:35:50;;;;;;;10.98;7.63;;;;;;;;;;5070240;28;20111;-56
2023/09/08 08:38:16;;;;;;;10.15;7.90;;;;;;;;;;5070504;28;20056;-56
2023/09/08 08:40:42;;;;;;;10.98;8.35;;;;;;;;;;5065482;28;20123;-56
2023/09/08 08:43:09;;;;;;;13.35;8.32;;;;;;;;;;5065056;28;20051;-56
2023/09/08 08:45:35;;;;;;;14.55;8.45;;;;;;;;;;5070651;28;20048;-56
2023/09/08 08:48:02;;;;;;;12.60;9.70;;;;;;;;;;5069876;28;20060;-56
2023/09/08 08:50:28;;;;;;;11.32;8.50;;;;;;;;;;5063103;28;20076;-56
2023/09/08 08:52:55;;;;;;;10.80;8.07;;;;;;;;;;5070516;28;20106;-56
2023/09/08 08:55:21;;;;;;;9.60;8.07;;;;;;;;;;5070033;28;20040;-56
2023/09/08 08:57:47;;;;;;;12.98;8.60;;;;;;;;;;5069373;28;20123;-56
2023/09/08 09:00:15;;;;;;;8.98;7.20;;;;;;;;;;5070711;28;20094;-56
2023/09/08 09:02:42;;;;;;;11.35;8.10;;;;;;;;;;5064762;28;20052;-56
2023/09/08 09:05:15;;;;;;;11.00;7.65;;;;;;;;;;5061143;28;20484;-56
2023/09/08 09:07:44;;;;;;;15.25;7.60;;;;;;;;;;5070274;28;20400;-56
2023/09/08 09:10:11;;;;;;;12.52;8.05;;;;;;;;;;5069973;28;20040;-56
2023/09/08 09:12:40;;;;;;;10.75;7.65;;;;;;;;;;5068547;28;20119;-56
2023/09/08 09:15:08;;;;;;;15.52;7.60;;;;;;;;;;5057547;28;20150;-56
2023/09/08 09:17:34;;;;;;;10.18;7.38;;;;;;;;;;5070418;28;20124;-56
2023/09/08 09:20:17;;;;;;;12.68;6.47;;;;;;;;;;5050838;28;20047;-56
2023/09/08 09:22:44;;;;;;;10.95;6.70;;;;;;;;;;5057745;28;20053;-56
2023/09/08 09:25:10;;;;;;;9.20;6.95;;;;;;;;;;5084842;28;20064;-56
2023/09/08 09:27:38;;;;;;;10.43;6.78;;;;;;;;;;5068904;28;20036;-56
2023/09/08 09:30:05;;;;;;;8.55;6.00;;;;;;;;;;5066497;28;20508;-56
2023/09/08 09:32:31;;;;;;;11.15;6.90;;;;;;;;;;5077279;28;20071;-56
2023/09/08 09:35:00;;;;;;;10.13;6.22;;;;;;;;;;5064155;28;20047;-56
2023/09/08 09:37:27;;;;;;;10.70;6.25;;;;;;;;;;5073288;28;20356;-56
2023/09/08 09:39:54;;;;;;;9.00;6.10;;;;;;;;;;5072618;28;20070;-56
2023/09/08 09:42:23;;;;;;;9.20;5.65;;;;;;;;;;5069508;28;20093;-56
2023/09/08 09:44:51;;;;;;;7.07;5.25;;;;;;;;;;5073029;28;20186;-56
2023/09/08 09:47:17;;;;;;;7.82;5.50;;;;;;;;;;5063125;28;20061;-56
2023/09/08 09:49:47;;;;;;;10.60;5.55;;;;;;;;;;5073995;28;20060;-56
2023/09/08 09:52:15;;;;;;;9.88;5.93;;;;;;;;;;5068461;28;20373;-57
2023/09/08 09:54:44;;;;;;;8.88;5.60;;;;;;;;;;5069120;28;20177;-56
2023/09/08 09:57:14;;;;;;;8.52;5.60;;;;;;;;;;5067194;28;20048;-56
2023/09/08 09:59:44;;;;;;;13.85;5.32;;;;;;;;;;5073868;28;20182;-56
2023/09/08 10:02:14;;;;;;;8.43;5.18;;;;;;;;;;5073468;28;20119;-57
2023/09/08 10:04:43;;;;;;;8.90;5.50;;;;;;;;;;5071495;28;20041;-57
2023/09/08 10:07:09;;;;;;;7.65;4.90;;;;;;;;;;5070538;28;20040;-56
2023/09/08 10:09:37;;;;;;;7.03;4.70;;;;;;;;;;5071216;28;20416;-57
2023/09/08 10:12:06;;;;;;;9.15;5.38;;;;;;;;;;5105351;28;20094;-57
2023/09/08 10:14:36;;;;;;;9.32;4.95;;;;;;;;;;5073206;28;20040;-57
2023/09/08 10:17:02;;;;;;;6.78;4.90;;;;;;;;;;5070966;28;20039;-56
2023/09/08 10:19:29;;;;;;;9.25;4.65;;;;;;;;;;5071725;28;20045;-56
2023/09/08 10:21:56;;;;;;;7.55;5.35;;;;;;;;;;5072817;28;20082;-57
2023/09/08 10:24:23;;;;;;;7.03;5.10;;;;;;;;;;5073151;28;20119;-57
2023/09/08 10:26:58;;;;;;;7.00;4.75;;;;;;;;;;5070839;28;20036;-57
2023/09/08 10:29:28;;;;;;;8.18;4.53;;;;;;;;;;5072043;28;20036;-57
2023/09/08 10:31:55;;;;;;;7.72;5.25;;;;;;;;;;5064204;28;20059;-57
2023/09/08 10:34:23;;;;;;;7.35;4.70;;;;;;;;;;5066190;28;20508;-57
2023/09/08 10:36:49;;;;;;;13.18;5.50;;;;;;;;;;5065640;28;20036;-57
2023/09/08 10:39:38;;;;;;;8.88;5.13;;;;;;;;;;5066300;28;20405;-57
2023/09/08 10:42:34;;;;;;;7.85;4.85;;;;;;;;;;5067889;28;20496;-57
2023/09/08 10:45:04;;;;;;;7.00;4.45;;;;;;;;;;5063907;28;20500;-58
2023/09/08 10:47:34;;;;;;;6.47;4.13;;;;;;;;;;5064826;28;20057;-58
2023/09/08 10:50:00;;;;;;;7.93;4.38;;;;;;;;;;5072801;28;20120;-57
2023/09/08 10:52:27;;;;;;;10.98;4.43;;;;;;;;;;5067304;28;20162;-58
2023/09/08 10:54:54;;;;;;;7.30;4.10;;;;;;;;;;5064101;28;20101;-58
2023/09/08 10:57:24;;;;;;;6.20;3.80;;;;;;;;;;5058626;28;20052;-58
2023/09/08 10:59:57;;;;;;;8.13;4.47;;;;;;;;;;5071454;28;20040;-58
2023/09/08 11:02:33;;;;;;;8.45;4.03;;;;;;;;;;5071945;28;20472;-58
2023/09/08 11:04:59;;;;;;;7.15;4.63;;;;;;;;;;5069222;28;20036;-57
2023/09/08 11:07:25;;;;;;;7.65;4.20;;;;;;;;;;5071586;28;20048;-58
2023/09/08 11:09:52;;;;;;;6.53;4.28;;;;;;;;;;5065213;28;20108;-58
2023/09/08 11:12:18;;;;;;;6.45;4.20;;;;;;;;;;5063652;28;20113;-57
2023/09/08 11:14:44;;;;;;;8.25;4.32;;;;;;;;;;5064082;28;20048;-57
2023/09/08 11:17:10;;;;;;;8.35;4.15;;;;;;;;;;5071630;28;20036;-57
2023/09/08 11:19:43;;;;;;;10.88;4.00;;;;;;;;;;5070193;28;20080;-57
2023/09/08 11:22:11;;;;;;;8.93;3.95;;;;;;;;;;5071158;28;20178;-58
2023/09/08 11:24:37;;;;;;;5.63;3.92;;;;;;;;;;5060976;28;21841;-57
2023/09/08 11:27:03;;;;;;;6.38;4.15;;;;;;;;;;5061040;28;20048;-57
2023/09/08 11:29:30;;;;;;;5.85;3.90;;;;;;;;;;5057853;28;20138;-57
2023/09/08 11:31:56;;;;;;;5.88;3.63;;;;;;;;;;5061573;28;20052;-57
2023/09/08 11:34:22;;;;;;;6.72;3.50;;;;;;;;;;5062702;28;20036;-57
2023/09/08 11:36:48;;;;;;;8.40;4.05;;;;;;;;;;5068016;28;20072;-57
2023/09/08 11:39:15;;;;;;;7.40;3.80;;;;;;;;;;5069383;28;20115;-57
2023/09/08 11:41:42;;;;;;;6.63;4.40;;;;;;;;;;5064099;28;20068;-57
2023/09/08 11:44:08;;;;;;;7.03;3.45;;;;;;;;;;5067686;28;20234;-58
2023/09/08 11:46:34;;;;;;;6.70;3.28;;;;;;;;;;5065461;28;20052;-58
2023/09/08 11:49:00;;;;;;;6.30;4.10;;;;;;;;;;5064612;28;20049;-57
2023/09/08 11:51:27;;;;;;;5.85;3.75;;;;;;;;;;5076599;28;20136;-57
2023/09/08 11:53:53;;;;;;;5.18;3.38;;;;;;;;;;5070286;28;20054;-57
2023/09/08 11:56:19;;;;;;;5.53;3.55;;;;;;;;;;5071523;28;20139;-57
2023/09/08 11:58:46;;;;;;;9.45;3.80;;;;;;;;;;5070946;28;20060;-58
2023/09/08 12:01:13;;;;;;;6.22;4.18;;;;;;;;;;5071080;28;20170;-58
2023/09/08 12:03:52;;;;;;;11.65;4.20;;;;;;;;;;5069357;28;20138;-57
2023/09/08 12:06:18;;;;;;;6.93;3.60;;;;;;;;;;5056761;28;20043;-58
2023/09/08 12:08:45;;;;;;;6.00;3.88;;;;;;;;;;5069327;28;20056;-57
2023/09/08 12:11:12;;;;;;;5.47;3.25;;;;;;;;;;5062315;28;20396;-58
2023/09/08 12:13:38;;;;;;;8.00;3.55;;;;;;;;;;5067067;28;20080;-58
2023/09/08 12:16:17;;;;;;;5.18;3.40;;;;;;;;;;5071202;28;20066;-58
2023/09/08 12:18:45;;;;;;;6.22;3.30;;;;;;;;;;5059348;28;20036;-58
2023/09/08 12:21:11;;;;;;;6.18;3.45;;;;;;;;;;5057621;28;20208;-57
2023/09/08 12:23:50;;;;;;;6.13;3.30;;;;;;;;;;5070787;28;20404;-58
2023/09/08 12:26:16;;;;;;;7.00;3.30;;;;;;;;;;5070196;28;20420;-58
2023/09/08 12:28:43;;;;;;;8.38;3.65;;;;;;;;;;5069271;28;20032;-59
2023/09/08 12:31:10;;;;;;;5.20;3.13;;;;;;;;;;5056361;28;20446;-58
2023/09/08 12:33:36;;;;;;;6.03;3.05;;;;;;;;;;5052996;28;20407;-57
2023/09/08 12:36:11;;;;;;;6.70;3.50;;;;;;;;;;5061930;28;20491;-58
2023/09/08 12:38:38;;;;;;;5.05;2.92;;;;;;;;;;5063023;28;20131;-58
2023/09/08 12:41:04;;;;;;;5.25;3.08;;;;;;;;;;5058319;28;20475;-58
2023/09/08 12:43:30;;;;;;;6.65;3.40;;;;;;;;;;5062589;28;20063;-58
2023/09/08 12:45:56;;;;;;;7.07;3.00;;;;;;;;;;5069349;28;20094;-57
2023/09/08 12:48:23;;;;;;;4.35;2.92;;;;;;;;;;5070507;28;20144;-58
2023/09/08 12:50:49;;;;;;;6.60;3.40;;;;;;;;;;5070524;28;20048;-58
2023/09/08 12:53:19;;;;;;;6.85;3.30;;;;;;;;;;5068770;28;20052;-58
2023/09/08 12:55:46;;;;;;;4.25;2.72;;;;;;;;;;5075554;28;20503;-58
2023/09/08 12:58:12;;;;;;;5.30;3.15;;;;;;;;;;5075984;28;20063;-58
2023/09/08 13:00:38;;;;;;;5.38;2.90;;;;;;;;;;5074191;28;20056;-58
2023/09/08 13:03:04;;;;;;;5.40;3.15;;;;;;;;;;5076097;28;20037;-57
2023/09/08 13:05:31;;;;;;;5.57;3.47;;;;;;;;;;5073481;28;20041;-58
2023/09/08 13:07:57;;;;;;;4.82;3.25;;;;;;;;;;5068847;28;20045;-58
2023/09/08 13:10:23;;;;;;;4.68;3.20;;;;;;;;;;5066274;28;20067;-58
2023/09/08 13:12:51;;;;;;;7.20;3.47;;;;;;;;;;5067433;28;20067;-56
2023/09/08 13:15:17;;;;;;;6.22;3.42;;;;;;;;;;5066009;28;20157;-58
2023/09/08 13:17:43;;;;;;;5.88;3.10;;;;;;;;;;5065465;28;20051;-58
2023/09/08 13:20:10;;;;;;;5.82;3.50;;;;;;;;;;5067778;28;20033;-58
2023/09/08 13:22:36;;;;;;;8.25;3.60;;;;;;;;;;5068857;28;20128;-57
2023/09/08 13:25:02;;;;;;;11.23;4.10;;;;;;;;;;5068787;28;20645;-58
2023/09/08 13:27:28;;;;;;;5.57;3.08;;;;;;;;;;5065981;28;20041;-57
2023/09/08 13:29:55;;;;;;;5.25;3.55;;;;;;;;;;5066990;28;20120;-57
2023/09/08 13:32:22;;;;;;;7.03;3.50;;;;;;;;;;5064991;28;20052;-57
2023/09/08 13:34:48;;;;;;;6.10;3.80;;;;;;;;;;5064668;28;20077;-57
2023/09/08 13:37:15;;;;;;;5.15;3.83;;;;;;;;;;5068975;28;20067;-59
2023/09/08 13:39:41;;;;;;;6.30;3.80;;;;;;;;;;5068961;28;20545;-59
2023/09/08 13:42:09;;;;;;;6.57;3.83;;;;;;;;;;5070272;28;20033;-59
2023/09/08 13:44:35;;;;;;;6.97;3.28;;;;;;;;;;5070245;28;20032;-58
2023/09/08 13:47:01;;;;;;;8.20;3.95;;;;;;;;;;5066887;28;20060;-59
2023/09/08 13:49:27;;;;;;;6.60;3.80;;;;;;;;;;5065606;28;20067;-59
2023/09/08 13:51:54;;;;;;;8.40;3.92;;;;;;;;;;5066876;28;20043;-59
2023/09/08 13:54:20;;;;;;;10.13;3.95;;;;;;;;;;5065069;28;20048;-59
2023/09/08 13:56:58;;;;;;;9.07;4.30;;;;;;;;;;5069087;28;20492;-59
2023/09/08 13:59:24;;;;;;;7.60;3.83;;;;;;;;;;5068531;28;20115;-58
2023/09/08 14:01:50;;;;;;;6.00;3.60;;;;;;;;;;5067592;28;20063;-58
2023/09/08 14:04:16;;;;;;;7.22;3.83;;;;;;;;;;5064133;28;20516;-59
2023/09/08 14:06:45;;;;;;;6.20;3.72;;;;;;;;;;5064888;28;20412;-58
2023/09/08 14:09:11;;;;;;;5.45;3.83;;;;;;;;;;5064922;28;20411;-58
2023/09/08 14:11:38;;;;;;;7.82;4.13;;;;;;;;;;5062704;28;20040;-58
2023/09/08 14:14:04;;;;;;;12.63;3.85;;;;;;;;;;5063315;28;20040;-59
2023/09/08 14:16:30;;;;;;;5.18;3.70;;;;;;;;;;5092009;28;20460;-58
2023/09/08 14:18:56;;;;;;;6.15;3.20;;;;;;;;;;5063636;28;20157;-58
2023/09/08 14:21:22;;;;;;;4.95;3.33;;;;;;;;;;5063330;28;20040;-58
2023/09/08 14:23:49;;;;;;;6.35;3.65;;;;;;;;;;5063950;28;20036;-58
2023/09/08 14:26:15;;;;;;;5.40;3.97;;;;;;;;;;5070327;28;20075;-59
2023/09/08 14:28:41;;;;;;;6.15;3.97;;;;;;;;;;5069356;28;20064;-59
2023/09/08 14:31:07;;;;;;;8.82;3.70;;;;;;;;;;5072551;28;20047;-59